Time;durP1;ratioP1;P1;durP2;ratioP2;P2;SDS_P1;SDS_P2;PMS_P1;PMS_P2;Temp;Humidity;BMP_temperature;BMP_pressure;BME280_temperature;BME280_humidity;BME280_pressure;Samples;Min_cycle;Max_cycle;Signal;HPM_P1;HPM_P2
2023/02/05 00:00:32;;;;;;;10.33;4.83;;;4.70;89.60;;;8.13;51.81;99563.59;5033745;28;20060;-42
2023/02/05 00:03:00;;;;;;;9.83;4.13;;;4.70;89.30;;;8.14;51.61;99559.16;5033331;28;20433;-40
2023/02/05 00:05:27;;;;;;;8.80;4.97;;;4.70;89.30;;;8.15;51.52;99564.34;5033687;28;20052;-41
2023/02/05 00:07:55;;;;;;;9.83;3.87;;;4.70;89.10;;;8.17;51.45;99561.63;5033916;28;20057;-42
2023/02/05 00:10:22;;;;;;;6.47;3.60;;;4.80;88.70;;;8.16;51.46;99558.13;5032529;28;20056;-42
2023/02/05 00:12:50;;;;;;;9.10;3.80;;;4.80;88.60;;;8.19;51.43;99554.41;5033040;28;20037;-43
2023/02/05 00:15:17;;;;;;;14.57;4.77;;;4.80;88.50;;;8.18;51.30;99552.69;5033634;28;20425;-41
2023/02/05 00:17:45;;;;;;;13.90;4.57;;;4.80;88.20;;;8.16;51.30;99550.16;5033523;28;20060;-43
2023/02/05 00:20:13;;;;;;;10.30;4.23;;;4.70;88.40;;;8.17;51.25;99548.34;5033433;28;20045;-40
2023/02/05 00:22:40;;;;;;;7.43;3.97;;;4.70;88.30;;;8.14;51.04;99549.38;5033179;28;20060;-40
2023/02/05 00:25:08;;;;;;;9.47;4.60;;;4.70;88.20;;;8.12;51.54;99548.63;5032367;28;20053;-41
2023/02/05 00:27:35;;;;;;;8.53;4.47;;;4.70;88.60;;;8.12;51.38;99550.44;5033310;28;20519;-41
2023/02/05 00:30:03;;;;;;;14.00;4.70;;;4.70;88.60;;;8.08;51.43;99550.66;5033210;28;20061;-41
2023/02/05 00:32:31;;;;;;;12.20;4.77;;;4.70;88.90;;;8.08;51.46;99549.78;5031167;28;20042;-41
2023/02/05 00:34:58;;;;;;;15.83;4.33;;;4.60;89.00;;;8.07;51.70;99553.41;5033313;28;20056;-41
2023/02/05 00:37:26;;;;;;;10.60;4.47;;;4.70;89.60;;;8.08;51.66;99541.81;5032472;28;20489;-41
2023/02/05 00:39:53;;;;;;;11.50;4.87;;;4.60;89.50;;;8.09;51.47;99540.88;5032448;28;20053;-41
2023/02/05 00:42:21;;;;;;;9.70;5.43;;;4.60;89.70;;;8.12;51.77;99543.31;5031730;28;20523;-41
2023/02/05 00:44:48;;;;;;;9.73;4.83;;;4.70;90.20;;;8.16;51.67;99547.50;5031943;28;20779;-43
2023/02/05 00:47:16;;;;;;;14.27;7.33;;;4.80;90.00;;;8.19;51.52;99549.09;5031917;28;20056;-44
2023/02/05 00:49:44;;;;;;;11.87;6.47;;;4.80;90.10;;;8.20;51.43;99548.13;5015365;28;20488;-43
2023/02/05 00:52:11;;;;;;;10.67;5.67;;;4.80;90.10;;;8.18;51.77;99550.91;5033353;28;20052;-40
2023/02/05 00:54:39;;;;;;;11.97;5.83;;;4.80;89.90;;;8.16;51.70;99543.97;5031639;28;20103;-42
2023/02/05 00:57:06;;;;;;;13.17;5.30;;;4.60;89.90;;;8.11;52.01;99544.28;5033337;28;20042;-42
2023/02/05 00:59:34;;;;;;;16.27;5.87;;;4.60;91.00;;;8.08;51.83;99541.81;5032570;28;20049;-41
2023/02/05 01:02:02;;;;;;;13.80;5.00;;;4.60;91.10;;;8.03;51.80;99536.81;5031604;28;20045;-41
2023/02/05 01:04:29;;;;;;;9.50;5.13;;;4.60;90.60;;;7.98;51.69;99540.72;5032780;28;20250;-41
2023/02/05 01:06:57;;;;;;;11.33;6.60;;;4.50;90.90;;;7.95;51.83;99540.91;5032725;28;20049;-43
2023/02/05 01:09:24;;;;;;;9.73;4.90;;;4.50;90.90;;;7.92;51.85;99527.84;5030969;28;20421;-41
2023/02/05 01:11:52;;;;;;;10.73;5.70;;;4.50;91.50;;;7.90;52.03;99530.59;5031064;28;20057;-41
2023/02/05 01:14:20;;;;;;;10.27;6.93;;;4.50;91.00;;;7.89;51.62;99521.78;5032978;28;20068;-44
2023/02/05 01:16:47;;;;;;;9.67;5.90;;;4.50;91.20;;;7.89;51.86;99524.44;5031143;28;20045;-41
2023/02/05 01:19:15;;;;;;;11.73;5.93;;;4.50;91.40;;;7.88;51.90;99524.53;5032357;28;20394;-43
2023/02/05 01:21:42;;;;;;;13.10;7.00;;;4.50;91.50;;;7.87;51.39;99523.69;5031558;28;20057;-41
2023/02/05 01:24:10;;;;;;;13.30;6.47;;;4.50;91.60;;;7.83;52.08;99521.31;5032437;28;20053;-42
2023/02/05 01:26:38;;;;;;;12.37;5.97;;;4.40;91.10;;;7.74;51.86;99528.06;5013954;28;20049;-40
2023/02/05 01:29:07;;;;;;;14.80;5.63;;;4.20;91.60;;;7.68;51.88;99524.00;5032113;28;20048;-41
2023/02/05 01:31:35;;;;;;;12.63;6.50;;;4.20;92.00;;;7.60;52.30;99522.78;5031025;28;20393;-43
2023/02/05 01:34:02;;;;;;;12.93;6.23;;;4.10;92.20;;;7.52;52.34;99517.09;5032427;28;20034;-42
2023/02/05 01:36:30;;;;;;;10.70;5.40;;;4.00;92.50;;;7.49;52.27;99518.16;5030809;28;20056;-41
2023/02/05 01:38:57;;;;;;;10.83;6.13;;;4.10;92.70;;;7.48;52.23;99514.66;5031383;28;20459;-43
2023/02/05 01:41:27;;;;;;;14.33;6.13;;;4.10;93.20;;;7.51;51.93;99505.66;5030506;28;20417;-40
2023/02/05 01:44:14;;;;;;;12.90;6.03;;;4.10;93.10;;;7.48;52.03;99503.19;5030498;28;20053;-41
2023/02/05 01:46:46;;;;;;;13.83;5.13;;;4.10;92.90;;;7.44;52.07;99507.88;5032073;28;20398;-42
2023/02/05 01:49:20;;;;;;;14.00;5.37;;;4.00;92.70;;;7.37;52.29;99509.19;5030318;28;20428;-41
2023/02/05 01:51:48;;;;;;;;;;;4.00;93.60;;;7.37;52.17;99493.28;5030836;28;20041;-43
2023/02/05 01:54:19;;;;;;;14.57;5.90;;;4.00;94.40;;;7.44;52.10;99499.03;5030217;28;20391;-42
2023/02/05 01:56:54;;;;;;;8.70;5.23;;;4.00;94.70;;;7.41;52.32;99496.59;5031659;28;20045;-41
2023/02/05 01:59:27;;;;;;;10.17;6.10;;;4.00;95.00;;;7.43;52.32;99497.34;5014449;28;20052;-42
2023/02/05 02:01:55;;;;;;;9.47;6.17;;;4.00;94.90;;;7.43;52.25;99492.91;5023929;28;20041;-42
2023/02/05 02:04:36;;;;;;;15.23;5.93;;;4.00;95.00;;;7.40;52.40;99490.44;5031673;28;20417;-41
2023/02/05 02:07:06;;;;;;;12.43;5.93;;;4.00;95.50;;;7.40;52.57;99487.78;5024124;28;20049;-42
2023/02/05 02:09:39;;;;;;;14.07;5.33;;;4.00;95.00;;;7.37;52.38;99481.84;5030384;28;20482;-41
2023/02/05 02:12:18;;;;;;;14.80;6.13;;;4.00;95.00;;;7.37;52.72;99476.53;5029780;28;20520;-41
2023/02/05 02:14:50;;;;;;;15.60;6.10;;;3.90;95.80;;;7.36;52.81;99480.13;5022557;28;20555;-41
2023/02/05 02:17:19;;;;;;;10.50;6.13;;;3.90;95.80;;;7.37;53.08;99473.91;5030050;28;20038;-44
2023/02/05 02:20:00;;;;;;;12.47;5.97;;;3.90;96.30;;;7.38;52.80;99460.53;5030073;28;20053;-41
2023/02/05 02:23:11;;;;;;;10.23;5.47;;;4.00;96.50;;;7.38;52.96;99464.97;5011112;28;20057;-41
2023/02/05 02:26:09;;;;;;;11.47;5.03;;;4.00;96.30;;;7.39;53.10;99466.69;5031657;28;20511;-41
2023/02/05 02:28:53;;;;;;;14.00;5.37;;;4.00;96.50;;;7.41;52.79;99457.69;5029754;28;20060;-41
2023/02/05 02:31:45;;;;;;;11.75;5.40;;;4.00;97.30;;;7.43;53.02;99449.66;5029829;28;20041;-41
2023/02/05 02:34:26;;;;;;;11.03;5.37;;;4.10;96.60;;;7.42;52.49;99445.28;5024312;28;20045;-42
2023/02/05 02:37:13;;;;;;;9.10;5.47;;;4.00;96.30;;;7.39;52.77;99442.84;5003886;28;20050;-41
2023/02/05 02:40:00;;;;;;;11.00;6.13;;;4.00;96.80;;;7.38;52.87;99443.78;5028790;28;20046;-42
2023/02/05 02:42:38;;;;;;;11.20;5.33;;;4.00;97.00;;;7.40;52.83;99460.44;5013341;28;20042;-42
2023/02/05 02:45:11;;;;;;;11.00;5.37;;;4.00;97.30;;;7.41;53.33;99462.16;5014433;28;20045;-44
2023/02/05 02:47:49;;;;;;;11.90;5.85;;;4.00;97.50;;;7.41;52.85;99440.94;5013550;28;20049;-41
2023/02/05 02:50:33;;;;;;;10.77;5.40;;;4.00;97.10;;;7.43;52.98;99439.91;5029915;28;20052;-41
2023/02/05 02:53:08;;;;;;;12.75;5.90;;;4.00;97.20;;;7.47;52.72;99435.25;5022009;28;20122;-44
2023/02/05 02:55:41;;;;;;;14.83;5.47;;;4.10;96.90;;;7.44;52.65;99424.84;5029042;28;20045;-41
2023/02/05 02:58:26;;;;;;;10.75;5.45;;;4.00;96.70;;;7.38;52.64;99435.84;5030130;28;20041;-44
2023/02/05 03:00:55;;;;;;;9.15;4.97;;;4.00;96.60;;;7.37;53.06;99434.16;5029780;28;20037;-41
2023/02/05 03:03:25;;;;;;;9.97;5.03;;;4.00;96.90;;;7.38;52.83;99435.84;5013100;28;20428;-41
2023/02/05 03:05:57;;;;;;;14.07;5.40;;;4.00;97.00;;;7.39;52.58;99429.59;5029130;28;20050;-44
2023/02/05 03:08:33;;;;;;;11.17;4.47;;;4.00;96.80;;;7.37;52.39;99436.78;5029096;28;20046;-43
2023/02/05 03:11:10;;;;;;;8.87;5.23;;;4.00;96.50;;;7.33;52.64;99437.91;5006780;28;20049;-43
2023/02/05 03:13:37;;;;;;;7.60;5.40;;;3.90;96.80;;;7.28;52.63;99441.69;5029303;28;20048;-43
2023/02/05 03:16:06;;;;;;;11.40;6.67;;;3.80;96.30;;;7.23;52.69;99435.00;5029494;28;20041;-41
2023/02/05 03:18:34;;;;;;;9.90;5.20;;;3.80;97.00;;;7.22;53.15;99438.59;5029330;28;20412;-42
2023/02/05 03:21:11;;;;;;;12.60;5.13;;;3.80;97.20;;;7.24;52.66;99429.59;5013499;28;20037;-41
2023/02/05 03:23:39;;;;;;;13.63;5.47;;;3.90;97.50;;;7.27;52.96;99442.66;5028912;28;20037;-41
2023/02/05 03:26:34;;;;;;;10.47;6.03;;;3.90;97.50;;;7.27;53.11;99434.72;5028742;28;20041;-42
2023/02/05 03:29:35;;;;;;;11.87;5.53;;;4.00;97.20;;;7.30;52.26;99423.06;5024849;28;20046;-40
2023/02/05 03:32:18;;;;;;;13.20;4.83;;;3.90;96.30;;;7.27;52.75;99418.81;5025800;28;20421;-44
2023/02/05 03:35:34;;;;;;;10.40;6.20;;;3.80;96.50;;;7.19;52.57;99409.66;5017029;28;20049;-41
2023/02/05 03:38:25;;;;;;;10.40;4.73;;;3.80;96.70;;;7.19;53.12;99407.00;5025595;28;20061;-41
2023/02/05 03:41:09;;;;;;;13.33;5.30;;;3.90;96.60;;;7.19;52.35;99401.69;5033462;28;20056;-41
2023/02/05 03:43:55;;;;;;;16.65;5.20;;;3.90;96.50;;;7.15;52.73;99397.53;5032700;28;20049;-44
2023/02/05 03:46:48;;;;;;;12.30;5.73;;;3.80;95.90;;;7.10;52.81;99411.94;5033329;28;20037;-41
2023/02/05 03:49:25;;;;;;;9.60;4.17;;;3.80;96.10;;;7.07;52.84;99405.97;5032522;28;20042;-40
2023/02/05 03:52:16;;;;;;;8.77;4.13;;;3.70;96.30;;;7.05;52.73;99410.50;5032401;28;20052;-42
2023/02/05 03:55:15;;;;;;;10.90;5.40;;;3.70;97.10;;;7.09;53.23;99409.38;5032495;28;20539;-41
2023/02/05 03:57:59;;;;;;;12.40;5.57;;;3.80;96.40;;;7.12;52.61;99398.59;5032239;28;20413;-41
2023/02/05 04:00:29;;;;;;;14.00;4.57;;;3.70;96.10;;;7.09;52.90;99397.00;5033035;28;20052;-41
2023/02/05 04:02:56;;;;;;;14.07;4.80;;;3.70;96.60;;;7.07;52.70;99387.44;5032366;28;20042;-44
2023/02/05 04:05:29;;;;;;;9.63;4.20;;;3.60;96.60;;;7.07;53.08;99382.97;5016804;28;20535;-41
2023/02/05 04:07:57;;;;;;;9.67;5.83;;;3.70;97.40;;;7.07;52.58;99384.78;5032412;28;20046;-41
2023/02/05 04:10:30;;;;;;;9.70;4.90;;;3.70;97.30;;;7.06;52.84;99386.59;5032735;28;20049;-42
2023/02/05 04:13:01;;;;;;;15.10;5.70;;;3.70;97.30;;;7.07;53.12;99390.91;5024600;28;20385;-41
2023/02/05 04:15:29;;;;;;;8.60;4.77;;;3.70;98.20;;;7.07;53.32;99396.22;5032765;28;20406;-41
2023/02/05 04:17:59;;;;;;;12.90;4.77;;;3.70;97.60;;;7.08;53.42;99394.44;5016654;28;20041;-43
2023/02/05 04:20:29;;;;;;;11.53;5.23;;;3.70;97.40;;;7.10;53.51;99395.19;5032290;28;20046;-41
2023/02/05 04:22:57;;;;;;;8.97;4.87;;;3.70;97.40;;;7.09;52.96;99394.34;5032359;28;20042;-42
2023/02/05 04:25:26;;;;;;;9.23;5.00;;;3.70;97.20;;;7.12;53.48;99398.59;5032561;28;20508;-42
2023/02/05 04:27:59;;;;;;;11.60;4.13;;;3.70;97.40;;;7.17;53.43;99396.50;5033371;28;20040;-42
2023/02/05 04:30:28;;;;;;;11.37;4.73;;;3.80;96.90;;;7.23;52.70;99395.25;5032700;28;20053;-41
2023/02/05 04:32:56;;;;;;;10.47;4.20;;;3.90;96.70;;;7.28;52.72;99401.13;5033007;28;20417;-42
2023/02/05 04:35:24;;;;;;;10.77;4.13;;;3.90;96.20;;;7.28;52.54;99393.19;5031640;28;20496;-42
2023/02/05 04:37:52;;;;;;;7.77;4.37;;;3.90;95.50;;;7.30;52.75;99399.22;5033547;28;20392;-43
2023/02/05 04:40:19;;;;;;;11.57;4.20;;;4.00;95.50;;;7.27;53.08;99402.09;5033431;28;20041;-41
2023/02/05 04:42:47;;;;;;;12.10;4.80;;;3.90;94.80;;;7.16;52.49;99400.09;5032478;28;20045;-41
2023/02/05 04:45:14;;;;;;;11.57;4.80;;;3.80;95.50;;;7.10;52.88;99397.84;5032180;28;20045;-41
2023/02/05 04:47:42;;;;;;;11.50;5.33;;;3.70;95.40;;;7.02;52.67;99408.06;5033081;28;20038;-42
2023/02/05 04:50:09;;;;;;;10.27;5.37;;;3.60;96.60;;;6.99;52.93;99409.09;5033132;28;20075;-41
2023/02/05 04:52:37;;;;;;;13.83;6.07;;;3.60;97.10;;;6.99;53.29;99410.91;5032502;28;20041;-42
2023/02/05 04:55:05;;;;;;;7.97;4.37;;;3.60;98.20;;;7.01;52.95;99398.41;5032705;28;20045;-41
2023/02/05 04:57:33;;;;;;;9.27;5.30;;;3.60;97.30;;;7.05;53.18;99392.81;5031509;28;20060;-43
2023/02/05 05:00:00;;;;;;;12.83;5.57;;;3.70;97.80;;;7.10;52.88;99395.19;5032943;28;20053;-42
2023/02/05 05:02:28;;;;;;;11.60;5.27;;;3.60;96.60;;;6.99;52.81;99409.09;5032509;28;20041;-41
2023/02/05 05:04:55;;;;;;;7.13;4.17;;;3.60;96.40;;;6.87;53.32;99408.06;5033136;28;20064;-41
2023/02/05 05:07:23;;;;;;;10.07;5.10;;;3.40;98.50;;;6.87;53.08;99417.81;5032315;28;20056;-41
2023/02/05 05:09:50;;;;;;;7.07;4.10;;;3.50;99.20;;;6.88;52.95;99419.50;5032559;28;20050;-41
2023/02/05 05:12:19;;;;;;;12.33;4.37;;;3.50;98.90;;;6.88;53.32;99424.78;5031237;28;20065;-43
2023/02/05 05:14:46;;;;;;;9.47;5.43;;;3.50;99.30;;;6.89;53.24;99422.06;5032392;28;20048;-41
2023/02/05 05:17:14;;;;;;;12.80;4.97;;;3.40;99.00;;;6.83;53.63;99421.59;5032334;28;20038;-42
2023/02/05 05:19:41;;;;;;;10.97;5.40;;;3.30;99.90;;;6.87;53.72;99412.50;5032530;28;20042;-42
2023/02/05 05:22:09;;;;;;;8.57;4.83;;;3.40;99.90;;;6.88;53.53;99412.44;5032135;28;20045;-41
2023/02/05 05:24:36;;;;;;;10.47;5.33;;;3.40;99.90;;;6.92;53.48;99406.94;5029851;28;20038;-42
2023/02/05 05:27:04;;;;;;;9.27;4.47;;;3.50;99.90;;;6.92;53.22;99399.84;5024396;28;20049;-43
2023/02/05 05:29:32;;;;;;;11.47;4.10;;;3.60;99.90;;;6.93;53.88;99396.25;5032518;28;20048;-43
2023/02/05 05:31:59;;;;;;;12.93;4.40;;;3.60;99.90;;;6.99;53.51;99400.31;5031819;28;20040;-44
2023/02/05 05:34:27;;;;;;;8.80;4.07;;;3.60;99.80;;;7.03;53.32;99396.53;5031127;28;20037;-42
2023/02/05 05:36:54;;;;;;;8.80;4.80;;;3.60;99.80;;;7.04;53.61;99403.53;5031911;28;20405;-43
2023/02/05 05:44:56;;;;;;;8.33;4.20;;;3.60;99.90;;;7.07;53.37;99403.31;5031966;28;20058;-42
2023/02/05 05:47:24;;;;;;;7.57;4.30;;;3.70;99.90;;;7.13;53.61;99404.75;5014223;28;20052;-44
2023/02/05 05:49:51;;;;;;;9.20;5.17;;;3.80;99.90;;;7.16;53.54;99401.91;5031701;28;20045;-41
2023/02/05 05:52:19;;;;;;;10.10;6.50;;;3.90;99.80;;;7.15;52.82;99400.19;5031555;28;20505;-46
2023/02/05 05:54:46;;;;;;;9.70;6.47;;;3.80;98.40;;;7.08;53.70;99389.16;5031772;28;20050;-42
2023/02/05 05:57:14;;;;;;;15.87;6.67;;;3.90;98.60;;;7.10;52.81;99397.84;5031789;28;20417;-42
2023/02/05 05:59:41;;;;;;;14.27;6.90;;;3.80;98.40;;;7.12;53.38;99395.09;5031462;28;20048;-45
2023/02/05 06:02:09;;;;;;;13.20;6.30;;;3.80;98.50;;;7.10;53.15;99396.03;5031334;28;20049;-42
2023/02/05 06:04:37;;;;;;;12.93;6.33;;;3.70;99.40;;;7.11;52.85;99402.19;5031655;28;20037;-41
2023/02/05 06:07:04;;;;;;;9.40;6.60;;;3.70;99.00;;;7.06;52.81;99406.94;5031481;28;20041;-43
2023/02/05 06:09:32;;;;;;;9.30;6.13;;;3.60;99.40;;;7.02;53.47;99411.56;5029999;28;20045;-41
2023/02/05 06:11:59;;;;;;;12.10;6.40;;;3.50;99.50;;;7.01;53.25;99404.56;5031049;28;20057;-41
2023/02/05 06:14:27;;;;;;;13.10;6.83;;;3.50;99.90;;;7.03;52.95;99405.31;5031489;28;20048;-41
2023/02/05 06:16:55;;;;;;;10.63;6.93;;;3.50;99.90;;;7.07;53.34;99405.97;5031331;28;20488;-43
2023/02/05 06:19:22;;;;;;;11.57;5.73;;;3.60;99.90;;;7.09;53.42;99407.59;5031255;28;20041;-41
2023/02/05 06:21:50;;;;;;;11.67;6.03;;;3.60;99.90;;;7.09;53.44;99396.13;5031088;28;20056;-43
2023/02/05 06:24:17;;;;;;;13.00;6.87;;;3.60;99.90;;;7.04;53.63;99396.44;5031183;28;20041;-41
2023/02/05 06:26:45;;;;;;;11.70;5.77;;;3.60;99.90;;;7.02;53.49;99395.69;5031208;28;20049;-42
2023/02/05 06:29:12;;;;;;;10.57;7.13;;;3.50;99.90;;;7.01;53.22;99383.38;5031160;28;20053;-43
2023/02/05 06:31:40;;;;;;;11.70;5.90;;;3.50;99.90;;;7.03;52.96;99399.16;5030913;28;20041;-41
2023/02/05 06:34:08;;;;;;;11.50;6.27;;;3.50;99.90;;;7.05;53.28;99382.22;5023096;28;20052;-44
2023/02/05 06:36:35;;;;;;;12.73;6.97;;;3.50;99.90;;;7.05;53.45;99382.22;5031095;28;20041;-40
2023/02/05 06:39:03;;;;;;;11.30;6.30;;;3.50;99.90;;;7.06;53.92;99376.00;5029602;28;20505;-40
2023/02/05 06:41:30;;;;;;;11.30;6.53;;;3.60;99.90;;;7.09;53.63;99385.53;5031125;28;20257;-42
2023/02/05 06:43:58;;;;;;;16.13;8.10;;;3.60;99.90;;;7.10;53.86;99393.38;5030647;28;20045;-42
2023/02/05 06:46:25;;;;;;;16.17;10.70;;;3.60;99.90;;;7.14;53.31;99394.06;5031029;28;20053;-41
2023/02/05 06:48:53;;;;;;;18.77;10.43;;;3.70;99.90;;;7.15;53.90;99394.91;5030915;28;20417;-41
2023/02/05 06:51:20;;;;;;;14.27;7.80;;;3.70;99.90;;;7.14;53.39;99399.34;5029627;28;20048;-40
2023/02/05 06:53:48;;;;;;;11.63;5.50;;;3.70;99.90;;;7.12;53.68;99400.41;5030714;28;20048;-46
2023/02/05 06:56:15;;;;;;;15.03;7.97;;;3.60;99.90;;;7.14;53.00;99406.47;5030815;28;20038;-40
2023/02/05 06:58:43;;;;;;;11.23;7.20;;;3.60;99.90;;;7.15;53.76;99402.84;5030819;28;20048;-41
2023/02/05 07:01:10;;;;;;;11.20;5.97;;;3.60;99.90;;;7.14;53.65;99411.75;5045957;28;20034;-41
2023/02/05 07:03:38;;;;;;;12.80;6.20;;;3.70;99.90;;;7.11;53.40;99415.41;5030768;28;20038;-42
2023/02/05 07:06:06;;;;;;;9.17;4.53;;;3.60;99.90;;;7.12;53.94;99416.28;5031207;28;20129;-41
2023/02/05 07:08:34;;;;;;;8.07;4.63;;;3.70;99.90;;;7.12;53.80;99416.28;5035792;28;20416;-41
2023/02/05 07:11:02;;;;;;;12.57;5.37;;;3.70;99.90;;;7.14;53.47;99420.53;5037107;28;20052;-41
2023/02/05 07:13:29;;;;;;;11.70;5.77;;;3.70;99.90;;;7.14;53.95;99415.25;5035557;28;20042;-41
2023/02/05 07:16:01;;;;;;;10.10;5.50;;;3.70;99.90;;;7.17;53.49;99408.88;5037301;28;20045;-43
2023/02/05 07:18:29;;;;;;;14.00;5.17;;;3.80;99.90;;;7.23;53.97;99412.03;5036239;28;20068;-43
2023/02/05 07:20:56;;;;;;;9.60;4.67;;;3.80;99.90;;;7.28;54.10;99406.41;5036980;28;20053;-40
2023/02/05 07:23:24;;;;;;;9.50;5.97;;;3.80;99.90;;;7.30;53.53;99400.06;5036891;28;20049;-42
2023/02/05 07:25:51;;;;;;;10.43;4.97;;;3.80;99.90;;;7.30;53.59;99396.56;5036030;28;20054;-43
2023/02/05 07:28:19;;;;;;;9.77;5.27;;;3.90;99.90;;;7.30;54.02;99385.97;5037212;28;20062;-41
2023/02/05 07:30:48;;;;;;;5.60;3.43;;;3.90;99.90;;;7.32;53.36;99378.78;5036997;28;20053;-42
2023/02/05 07:33:16;;;;;;;12.90;4.80;;;3.90;99.90;;;7.32;53.55;99384.06;5036217;28;20497;-43
2023/02/05 07:35:43;;;;;;;8.13;4.10;;;3.90;99.50;;;7.34;53.41;99384.00;5037090;28;20041;-42
2023/02/05 07:38:12;;;;;;;10.90;4.30;;;3.90;99.10;;;7.38;52.67;99386.34;5027850;28;20045;-41
2023/02/05 07:40:40;;;;;;;10.90;5.17;;;4.00;99.10;;;7.41;53.01;99375.53;5035833;28;20049;-42
2023/02/05 07:43:08;;;;;;;8.73;5.13;;;4.00;98.60;;;7.43;53.37;99381.59;5035033;28;20090;-41
2023/02/05 07:45:35;;;;;;;6.97;4.37;;;4.00;98.60;;;7.46;52.96;99386.72;5035963;28;20037;-43
2023/02/05 07:48:03;;;;;;;9.10;4.43;;;4.10;98.40;;;7.51;53.17;99380.25;5035822;28;20045;-41
2023/02/05 07:50:31;;;;;;;7.57;3.87;;;4.10;98.20;;;7.53;52.73;99368.59;5034827;28;20045;-42
2023/02/05 07:52:58;;;;;;;8.40;3.93;;;4.10;98.10;;;7.56;53.48;99372.84;5035470;28;20049;-43
2023/02/05 07:55:26;;;;;;;12.50;5.07;;;4.10;98.60;;;7.65;53.23;99377.56;5034480;28;20052;-41
2023/02/05 07:57:53;;;;;;;12.77;6.07;;;4.30;98.00;;;7.68;53.03;99378.19;5035787;28;20513;-41
2023/02/05 08:00:21;;;;;;;13.73;6.10;;;4.30;98.00;;;7.74;52.97;99389.38;5035972;28;20044;-42
2023/02/05 08:02:48;;;;;;;15.10;6.23;;;4.30;97.50;;;7.78;53.00;99390.88;5035537;28;20048;-41
2023/02/05 08:05:16;;;;;;;12.77;7.10;;;4.40;97.70;;;7.68;52.76;99398.56;5035688;28;20049;-43
2023/02/05 08:07:43;;;;;;;12.47;8.87;;;4.30;97.70;;;7.59;52.83;99402.66;5034325;28;20056;-41
2023/02/05 08:10:13;;;;;;;13.80;9.07;;;4.20;98.30;;;7.55;53.21;99405.63;5035853;28;20042;-42
2023/02/05 08:12:41;;;;;;;13.50;7.97;;;4.10;99.50;;;7.54;53.36;99398.59;5035418;28;20094;-44
2023/02/05 08:15:09;;;;;;;12.07;8.57;;;4.10;99.70;;;7.52;53.36;99397.84;5035661;28;20124;-43
2023/02/05 08:17:36;;;;;;;16.77;8.10;;;4.00;99.90;;;7.52;53.20;99389.91;5034193;28;20044;-43
2023/02/05 08:20:08;;;;;;;20.83;8.67;;;4.00;99.90;;;7.56;53.40;99392.28;5032301;28;20050;-43
2023/02/05 08:22:38;;;;;;;16.37;9.90;;;4.10;99.90;;;7.55;53.69;99385.25;5032421;28;20045;-44
2023/02/05 08:25:11;;;;;;;20.00;10.43;;;4.10;99.90;;;7.58;53.52;99390.38;5031454;28;20050;-44
2023/02/05 08:27:41;;;;;;;11.47;6.90;;;4.10;99.90;;;7.62;53.50;99383.06;5032206;28;20080;-42
2023/02/05 08:30:13;;;;;;;11.73;6.77;;;4.10;99.90;;;7.63;53.88;99382.94;5031444;28;20054;-43
2023/02/05 08:32:40;;;;;;;17.90;6.33;;;4.10;99.90;;;7.61;53.82;99371.59;5031144;28;20417;-42
2023/02/05 08:35:08;;;;;;;11.57;7.17;;;4.10;99.90;;;7.50;54.17;99382.03;5030786;28;20535;-41
2023/02/05 08:37:36;;;;;;;13.90;7.23;;;4.00;99.90;;;7.47;53.84;99383.09;5031209;28;20060;-42
2023/02/05 08:40:03;;;;;;;12.47;8.07;;;4.00;99.90;;;7.44;54.39;99388.63;5032085;28;20041;-42
2023/02/05 08:42:31;;;;;;;11.93;7.50;;;3.90;99.90;;;7.35;54.12;99377.72;5032175;28;20041;-42
2023/02/05 08:44:59;;;;;;;12.30;7.50;;;3.80;99.90;;;7.33;54.47;99376.97;5032261;28;20053;-42
2023/02/05 08:47:27;;;;;;;14.27;8.77;;;3.80;99.90;;;7.32;54.95;99364.69;5031901;28;20413;-40
2023/02/05 08:49:54;;;;;;;13.67;8.70;;;3.80;99.90;;;7.28;54.50;99362.22;5032022;28;20129;-40
2023/02/05 08:52:22;;;;;;;13.50;7.27;;;3.80;99.90;;;7.28;54.76;99353.44;5031881;28;20045;-43
2023/02/05 08:54:49;;;;;;;10.57;6.67;;;3.80;99.90;;;7.33;55.01;99347.81;5032214;28;20041;-41
2023/02/05 08:57:17;;;;;;;12.00;7.93;;;3.90;99.90;;;7.35;54.61;99332.69;5031769;28;20037;-40
2023/02/05 08:59:44;;;;;;;8.40;5.90;;;3.80;99.90;;;7.35;54.75;99322.09;5031535;28;20093;-43
2023/02/05 09:02:15;;;;;;;10.07;6.73;;;3.90;99.90;;;7.38;54.94;99319.25;5031466;28;20046;-41
2023/02/05 09:04:43;;;;;;;10.10;6.53;;;3.90;99.90;;;7.41;55.13;99314.59;5031756;28;20048;-40
2023/02/05 09:07:10;;;;;;;15.37;7.93;;;4.00;99.90;;;7.45;55.18;99313.44;5031769;28;20061;-41
2023/02/05 09:09:38;;;;;;;20.87;9.03;;;4.00;99.90;;;7.48;55.28;99305.31;5031831;28;20057;-41
2023/02/05 09:12:06;;;;;;;15.73;7.10;;;4.00;99.90;;;7.54;54.94;99301.41;5030735;28;20049;-41
2023/02/05 09:14:36;;;;;;;14.27;6.93;;;4.10;99.90;;;7.60;55.08;99301.00;5030894;28;20049;-41
2023/02/05 09:17:06;;;;;;;14.20;6.07;;;4.20;99.90;;;7.65;55.15;99301.50;5032277;28;20045;-41
2023/02/05 09:19:39;;;;;;;13.97;6.50;;;4.20;99.90;;;7.72;55.04;99303.78;5032406;28;20045;-41
2023/02/05 09:22:08;;;;;;;20.03;7.07;;;4.30;99.90;;;7.76;55.55;99299.97;5032062;28;20045;-41
2023/02/05 09:24:36;;;;;;;17.67;6.90;;;4.30;99.90;;;7.81;55.08;99292.53;5032447;28;20046;-41
2023/02/05 09:27:04;;;;;;;9.83;4.93;;;4.40;99.90;;;7.88;55.24;99301.78;5032320;28;20061;-43
2023/02/05 09:29:33;;;;;;;12.67;5.33;;;4.50;99.90;;;7.96;55.10;99298.63;5030461;28;20041;-43
2023/02/05 09:32:00;;;;;;;11.50;5.40;;;4.60;99.90;;;8.00;55.32;99292.16;5031788;28;20053;-42
2023/02/05 09:34:30;;;;;;;12.90;5.47;;;4.60;99.90;;;7.98;54.94;99291.41;5032345;28;20038;-47
2023/02/05 09:36:57;;;;;;;14.90;6.50;;;4.60;99.90;;;7.99;54.83;99286.00;5030894;28;20068;-41
2023/02/05 09:39:25;;;;;;;18.47;8.07;;;4.60;99.90;;;7.99;55.39;99287.81;5032188;28;20037;-40
2023/02/05 09:42:43;;;;;;;13.10;6.27;;;4.60;99.90;;;7.95;55.43;99281.00;5031603;28;20053;-41
2023/02/05 09:45:48;;;;;;;16.87;6.80;;;4.50;99.90;;;7.98;55.34;99276.31;5030339;28;20417;-42
2023/02/05 09:48:50;;;;;;;22.57;8.80;;;4.60;99.90;;;7.99;55.21;99277.19;5031782;28;20062;-41
2023/02/05 09:51:27;;;;;;;26.20;10.77;;;4.60;99.90;;;8.03;54.96;99282.19;5031797;28;20041;-42
2023/02/05 09:54:03;;;;;;;22.40;9.60;;;4.60;99.90;;;8.04;55.62;99275.06;5030434;28;20048;-43
2023/02/05 09:56:32;;;;;;;16.50;7.87;;;4.60;99.90;;;8.05;55.45;99276.78;5030943;28;20048;-42
2023/02/05 09:59:04;;;;;;;18.10;7.20;;;4.60;99.90;;;8.06;55.83;99279.31;5030462;28;20046;-43
2023/02/05 10:01:51;;;;;;;11.60;6.33;;;4.70;99.90;;;8.10;55.69;99274.63;5030330;28;20042;-41
2023/02/05 10:04:20;;;;;;;12.37;5.43;;;4.80;99.90;;;8.17;55.58;99280.38;5022334;28;20042;-41
2023/02/05 10:07:07;;;;;;;10.73;4.57;;;4.80;99.90;;;8.21;55.56;99274.75;5031619;28;20056;-42
2023/02/05 10:09:49;;;;;;;9.77;5.47;;;4.90;99.90;;;8.26;55.64;99274.44;5025641;28;20041;-41
2023/02/05 10:13:00;;;;;;;14.70;6.37;;;4.90;99.90;;;8.27;55.74;99278.78;5030279;28;20049;-41
2023/02/05 10:16:01;;;;;;;12.57;5.90;;;4.90;99.90;;;8.27;55.30;99271.66;5023947;28;20042;-42
2023/02/05 10:19:00;;;;;;;12.30;4.73;;;5.00;99.90;;;8.34;55.61;99276.56;5017125;28;20509;-41
2023/02/05 10:21:55;;;;;;;13.17;5.33;;;5.00;99.90;;;8.35;55.51;99263.16;5006690;28;20045;-41
2023/02/05 10:24:56;;;;;;;12.03;4.70;;;5.00;99.90;;;8.41;55.78;99259.22;5023633;28;20552;-41
2023/02/05 10:27:51;;;;;;;12.17;5.30;;;5.10;99.90;;;8.43;55.67;99257.34;5023756;28;20077;-43
2023/02/05 10:30:34;;;;;;;8.50;5.20;;;5.10;99.90;;;8.43;56.01;99257.34;5030942;28;20041;-41
2023/02/05 10:33:15;;;;;;;12.83;5.87;;;5.10;99.90;;;8.36;56.04;99245.47;5029512;28;20068;-40
2023/02/05 10:35:59;;;;;;;13.60;6.47;;;5.10;99.90;;;8.29;56.24;99240.56;5031444;28;20045;-41
2023/02/05 10:38:33;;;;;;;12.30;7.82;;;5.00;99.90;;;8.33;56.42;99235.88;5022678;28;20412;-43
2023/02/05 10:41:11;;;;;;;10.30;7.20;;;5.00;99.90;;;8.32;56.51;99238.66;5029170;28;20053;-41
2023/02/05 10:44:00;;;;;;;13.47;8.20;;;4.90;99.90;;;8.34;56.44;99229.66;5029703;28;20052;-42
2023/02/05 10:46:33;;;;;;;18.03;11.00;;;5.00;99.90;;;8.37;56.88;99233.88;5030951;28;20045;-40
2023/02/05 10:49:55;;;;;;;24.95;13.93;;;5.00;99.90;;;8.38;56.40;99233.78;5029834;28;20045;-39
2023/02/05 10:52:22;;;;;;;13.63;8.93;;;5.00;99.90;;;8.42;56.26;99248.56;5029610;28;20054;-41
2023/02/05 10:54:50;;;;;;;15.17;8.33;;;5.00;99.90;;;8.36;56.43;99243.66;5030947;28;20048;-42